Surface/Precipitation History
12/20/2014 02:17  to  12/21/2014 02:17
Change End Date:
Date/Time
(MST)
Sf
Temp Chem Water Layer Surface Precipitation
Sf Sub Frz Factor Pct Depth IcePct Cond Salin Type Intens Accum Rate
12/21/2014 02:10 Chemically Wet 29.5F 30F 31F 95 4% - 77% 10 mhos 1176 None None - -
12/21/2014 02:02 Chemically Wet 29.3F 30F 31F 95 4% - 79% 9 mhos 1148 None None - -
12/21/2014 01:52 Chemically Wet 29.3F 30F 31F 95 4% - 80% 9 mhos 1115 None None - -
12/21/2014 01:42 Chemically Wet 29.7F 30F 31F 95 4% - 78% 9 mhos 1072 None None - -
12/21/2014 01:39 Chemically Wet 29.7F 30F 31F 95 4% - 78% 9 mhos 1063 None None - -
12/21/2014 01:32 Chemically Wet 30.0F 30F 31F 95 4% - 74% 10 mhos 1113 None None - -
12/21/2014 01:22 Chemically Wet 30.2F 30F 31F 95 4% - 73% 10 mhos 1091 None None - -
12/21/2014 01:11 Chemically Wet 30.0F 30F 31F 95 4% - 75% 10 mhos 1106 None None - -
12/21/2014 01:09 Chemically Wet 30.0F 30F 31F 95 4% - 75% 10 mhos 1106 None None - -
12/21/2014 01:01 Chemically Wet 30.0F 30F 31F 95 4% - 75% 10 mhos 1098 None None - -
12/21/2014 00:51 Chemically Wet 30.0F 30F 31F 95 4% - 75% 9 mhos 1079 None None - -
12/21/2014 00:41 Chemically Wet 29.8F 30F 31F 95 3% - 79% 8 mhos 994 None None - -
12/21/2014 00:40 Chemically Wet 29.8F 30F 31F 95 3% - 79% 8 mhos 983 None None - -
12/21/2014 00:31 Chemically Wet 30.2F 30F 31F 95 3% - 76% 8 mhos 914 None None - -
12/21/2014 00:21 Chemically Wet 30.4F 30F 31F 95 3% - 74% 8 mhos 887 None None - -
Date/Time
(MST)
Sf
Temp Chem Water Layer Surface Precipitation
Sf Sub Frz Factor Pct Depth IcePct Cond Salin Type Intens Accum Rate
12/21/2014 00:11 Chemically Wet 30.4F 30F 31F 95 3% - 75% 8 mhos 866 None None - -
12/21/2014 00:07 Chemically Wet 30.2F 29F 31F 95 3% - 77% 8 mhos 874 None None - -
12/21/2014 00:01 Chemically Wet 30.2F 29F 31F 95 3% - 77% 8 mhos 873 None None - -
12/20/2014 23:51 Chemically Wet 30.2F 29F 31F 95 3% - 78% 8 mhos 882 None None - -
12/20/2014 23:41 Chemically Wet 30.2F 29F 31F 95 3% - 78% 8 mhos 881 None None - -
12/20/2014 23:39 Chemically Wet 30.2F 29F 31F 95 3% - 78% 8 mhos 881 None None - -
12/20/2014 23:31 Chemically Wet 30.0F 29F 31F 95 3% - 80% 8 mhos 890 None None - -
12/20/2014 23:21 Chemically Wet 29.8F 29F 31F 95 3% - 80% 8 mhos 903 None None - -
12/20/2014 23:11 Chemically Wet 29.8F 29F 31F 95 3% - 80% 8 mhos 905 None None - -
12/20/2014 23:10 Chemically Wet 29.8F 29F 31F 95 3% - 80% 8 mhos 906 None None - -
12/20/2014 23:01 Chemically Wet 29.8F 29F 31F 95 3% - 80% 8 mhos 907 None None - -
12/20/2014 22:51 Chemically Wet 29.5F 29F 31F 95 3% - 82% 8 mhos 931 None None - -
12/20/2014 22:41 Chemically Wet 29.3F 29F 31F 95 3% - 83% 8 mhos 942 None None - -
12/20/2014 22:41 Chemically Wet 29.3F 29F 31F 95 3% - 83% 8 mhos 942 None None - -
12/20/2014 22:31 Chemically Wet 29.5F 29F 31F 95 3% - 82% 8 mhos 934 None None - -
Date/Time
(MST)
Sf
Temp Chem Water Layer Surface Precipitation
Sf Sub Frz Factor Pct Depth IcePct Cond Salin Type Intens Accum Rate
12/20/2014 22:21 Chemically Wet 29.7F 29F 31F 95 3% - 81% 8 mhos 926 None None - -
12/20/2014 22:11 Chemically Wet 30.2F 29F 31F 95 3% - 78% 8 mhos 896 None None - -
12/20/2014 22:09 Chemically Wet 30.2F 29F 31F 95 3% - 78% 8 mhos 896 None None - -
12/20/2014 22:01 Chemically Wet 30.2F 29F 31F 95 3% - 78% 8 mhos 899 None None - -
12/20/2014 21:51 Chemically Wet 30.2F 29F 31F 95 3% - 76% 8 mhos 892 None None - -
12/20/2014 21:41 Chemically Wet 30.2F 29F 31F 95 3% - 76% 8 mhos 895 None None - -
12/20/2014 21:40 Chemically Wet 30.2F 29F 31F 95 3% - 78% 8 mhos 906 None None - -
12/20/2014 21:31 Chemically Wet 30.2F 29F 31F 95 3% - 76% 8 mhos 895 None None - -
12/20/2014 21:21 Chemically Wet 30.2F 29F 31F 95 3% - 78% 8 mhos 907 None None - -
12/20/2014 21:11 Chemically Wet 30.2F 29F 31F 95 3% - 78% 8 mhos 909 None None - -
12/20/2014 21:10 Chemically Wet 30.2F 29F 31F 95 3% - 78% 8 mhos 909 None None - -
12/20/2014 21:01 Chemically Wet 30.2F 29F 31F 95 3% - 78% 8 mhos 906 None None - -
12/20/2014 20:51 Chemically Wet 29.8F 29F 31F 95 3% - 80% 8 mhos 929 None None - -
12/20/2014 20:40 Chemically Wet 29.7F 29F 31F 95 3% - 81% 8 mhos 940 None None - -
12/20/2014 20:40 Chemically Wet 29.7F 29F 31F 95 3% - 81% 8 mhos 941 None None - -
Date/Time
(MST)
Sf
Temp Chem Water Layer Surface Precipitation
Sf Sub Frz Factor Pct Depth IcePct Cond Salin Type Intens Accum Rate
12/20/2014 20:30 Chemically Wet 29.5F 29F 31F 95 3% - 82% 8 mhos 953 None None - -
12/20/2014 20:20 Chemically Wet 29.5F 29F 31F 95 3% - 82% 8 mhos 955 None None - -
12/20/2014 20:10 Chemically Wet 29.7F 29F 31F 95 3% - 81% 8 mhos 948 None None - -
12/20/2014 20:10 Chemically Wet 29.7F 29F 31F 95 3% - 81% 8 mhos 948 None None - -
12/20/2014 20:00 Chemically Wet 29.7F 29F 31F 95 3% - 81% 8 mhos 955 None None - -
12/20/2014 19:50 Chemically Wet 29.5F 29F 31F 95 3% - 81% 8 mhos 972 None None - -
12/20/2014 19:41 Chemically Wet 29.5F 29F 31F 95 3% - 82% 8 mhos 941 None None - -
12/20/2014 19:40 Chemically Wet 29.5F 29F 31F 95 3% - 82% 8 mhos 941 None None - -
12/20/2014 19:30 Chemically Wet 29.7F 29F 31F 95 3% - 80% 8 mhos 974 None None - -
12/20/2014 19:20 Chemically Wet 29.7F 29F 31F 95 3% - 80% 8 mhos 979 None None - -
12/20/2014 19:10 Chemically Wet 29.5F 29F 31F 95 3% - 81% 8 mhos 993 None None - -
12/20/2014 19:10 Chemically Wet 29.5F 29F 31F 95 3% - 81% 8 mhos 993 None None - -
12/20/2014 19:00 Chemically Wet 29.7F 29F 31F 95 3% - 80% 8 mhos 987 None None - -
12/20/2014 18:50 Chemically Wet 29.5F 29F 31F 95 3% - 81% 8 mhos 1004 None None - -
12/20/2014 18:40 Chemically Wet 29.5F 29F 31F 95 3% - 80% 8 mhos 1011 None None - -
Date/Time
(MST)
Sf
Temp Chem Water Layer Surface Precipitation
Sf Sub Frz Factor Pct Depth IcePct Cond Salin Type Intens Accum Rate
12/20/2014 18:39 Chemically Wet 29.5F 29F 31F 95 3% - 80% 8 mhos 1011 None None - -
12/20/2014 18:30 Chemically Wet 29.7F 29F 31F 95 3% - 80% 8 mhos 1004 None None - -
12/20/2014 18:20 Chemically Wet 29.8F 29F 31F 95 3% - 78% 9 mhos 1027 None None - -
12/20/2014 18:11 Chemically Wet 30.2F 29F 31F 95 3% - 75% 9 mhos 1008 None None - -
12/20/2014 18:10 Chemically Wet 30.2F 29F 31F 95 3% - 75% 9 mhos 1009 None None - -
12/20/2014 18:00 Chemically Wet 30.4F 29F 31F 95 3% - 71% 9 mhos 992 None None - -
12/20/2014 17:50 Chemically Wet 30.7F 29F 31F 95 3% - 66% 9 mhos 976 None None - -
12/20/2014 17:40 Chemically Wet 30.6F 29F 31F 95 3% - 68% 9 mhos 1023 None None - -
12/20/2014 17:40 Chemically Wet 30.6F 29F 31F 95 3% - 68% 9 mhos 1023 None None - -
12/20/2014 17:30 Chemically Wet 30.6F 29F 31F 95 4% - 66% 10 mhos 1063 None None - -
12/20/2014 17:20 Chemically Wet 30.6F 29F 31F 95 4% - 66% 10 mhos 1072 None None - -
12/20/2014 17:10 Chemically Wet 30.7F 29F 31F 95 4% - 62% 10 mhos 1075 None None - -
12/20/2014 17:02 Chemically Wet 30.9F 29F 31F 95 4% - 57% 10 mhos 1102 None None - -
12/20/2014 17:00 Chemically Wet 31.1F 29F 31F 95 4% - 50% 10 mhos 1096 None None - -
12/20/2014 16:50 Chemically Wet 31.1F 29F 31F 95 4% 0.00 in 0% 11 mhos 1170 None None - -
Date/Time
(MST)
Sf
Temp Chem Water Layer Surface Precipitation
Sf Sub Frz Factor Pct Depth IcePct Cond Salin Type Intens Accum Rate
12/20/2014 16:40 Chemically Wet 31.5F 29F 31F 95 4% 0.00 in 0% 12 mhos 1239 None None - -
12/20/2014 16:32 Chemically Wet 31.5F 28F 31F 95 4% 0.00 in 0% 12 mhos 1303 None None - -
12/20/2014 16:30 Chemically Wet 31.6F 28F 31F 95 4% 0.00 in 0% 12 mhos 1308 None None - -
12/20/2014 16:20 Chemically Wet 31.8F 28F 31F 95 5% 0.00 in 0% 13 mhos 1372 None None - -
12/20/2014 16:20 Chemically Wet 31.8F 28F 31F 95 5% 0.00 in 0% 13 mhos 1372 None None - -
12/20/2014 16:09 Wet 32.2F 28F 31F 95 5% 0.00 in 0% 13 mhos 1385 None None - -
12/20/2014 16:01 Wet 32.5F 28F 31F 95 5% 0.00 in 0% 13 mhos 1397 None None - -
12/20/2014 15:59 Wet 32.5F 28F 31F 95 5% 0.00 in 0% 14 mhos 1436 None None - -
12/20/2014 15:49 Wet 32.9F 28F 31F 95 4% 0.00 in 0% 13 mhos 1344 None None - -
12/20/2014 15:39 Wet 33.3F 28F 31F 95 5% 0.00 in 0% 13 mhos 1383 None None - -
12/20/2014 15:31 Wet 33.8F 28F 31F 95 5% 0.00 in 0% 14 mhos 1385 None None - -
12/20/2014 15:29 Wet 33.8F 28F 31F 95 5% 0.00 in 0% 14 mhos 1388 None None - -
12/20/2014 15:19 Wet 34.5F 28F 31F 95 5% 0.00 in 0% 14 mhos 1406 None None - -
12/20/2014 15:11 Wet 34.5F 28F 31F 95 5% 0.00 in 0% 14 mhos 1423 None None - -
12/20/2014 15:09 Wet 34.5F 28F 31F 95 5% 0.00 in 0% 14 mhos 1436 None None - -
Date/Time
(MST)
Sf
Temp Chem Water Layer Surface Precipitation
Sf Sub Frz Factor Pct Depth IcePct Cond Salin Type Intens Accum Rate
12/20/2014 14:59 Wet 34.9F 28F 31F 95 5% 0.00 in 0% 15 mhos 1475 None None - -
12/20/2014 14:49 Wet 35.4F 28F 31F 95 5% 0.00 in 0% 15 mhos 1538 None None - -
12/20/2014 14:39 Wet 35.8F 28F 31F 95 5% 0.00 in 0% 15 mhos 1543 None None - -
12/20/2014 14:33 Wet 36.3F 28F 31F 95 5% 0.00 in 0% 16 mhos 1550 None None - -
12/20/2014 14:29 Wet 37.4F 28F 31F 95 5% 0.00 in 0% 16 mhos 1549 None None - -
12/20/2014 14:19 Wet 37.4F 28F 31F 95 5% 0.00 in 0% 16 mhos 1557 None None - -
12/20/2014 14:09 Wet 38.8F 28F 31F 95 5% 0.00 in 0% 16 mhos 1579 None None - -
12/20/2014 14:07 Wet 38.8F 28F 31F 95 5% 0.00 in 0% 16 mhos 1578 None None - -
12/20/2014 13:59 Wet 39.0F 28F 31F 95 5% 0.00 in 0% 17 mhos 1592 None None - -
12/20/2014 13:49 Wet 37.8F 28F 31F 95 5% 0.00 in 0% 16 mhos 1570 None None - -
12/20/2014 13:39 Wet 37.0F 28F 31F 95 5% 0.00 in 0% 16 mhos 1560 None None - -
12/20/2014 13:39 Wet 37.0F 28F 31F 95 5% 0.00 in 0% 16 mhos 1560 None None - -
12/20/2014 13:29 Wet 36.7F 28F 31F 95 5% 0.00 in 0% 16 mhos 1583 None None - -
12/20/2014 13:19 Wet 37.4F 28F 31F 95 5% 0.00 in 0% 16 mhos 1600 None None - -
12/20/2014 13:09 Wet 38.7F 28F 31F 95 6% 0.00 in 0% 17 mhos 1654 None None - -
Date/Time
(MST)
Sf
Temp Chem Water Layer Surface Precipitation
Sf Sub Frz Factor Pct Depth IcePct Cond Salin Type Intens Accum Rate
12/20/2014 13:03 Wet 38.7F 28F 31F 95 6% 0.00 in 0% 17 mhos 1680 None None - -
12/20/2014 12:59 Wet 37.4F 28F 31F 95 6% 0.00 in 0% 17 mhos 1696 None None - -
12/20/2014 12:49 Wet 37.2F 28F 30F 95 6% 0.00 in 0% 18 mhos 1744 None None - -
12/20/2014 12:41 Wet 33.6F 28F 30F 95 6% 0.00 in 0% 17 mhos 1800 None None - -
12/20/2014 12:39 Wet 33.6F 28F 30F 95 6% 0.00 in 0% 17 mhos 1802 None None - -
12/20/2014 12:29 Wet 33.6F 28F 30F 95 6% 0.00 in 0% 17 mhos 1742 None None - -
12/20/2014 12:19 Wet 34.0F 28F 30F 95 6% 0.00 in 0% 18 mhos 1810 None None - -
12/20/2014 12:09 Wet 33.1F 28F 30F 95 6% 0.00 in 0% 18 mhos 1913 None None - -
12/20/2014 11:59 Wet 32.7F 28F 30F 95 6% 0.10 in 0% 18 mhos 1930 None None - -
12/20/2014 11:49 Wet 32.4F 28F 30F 95 7% 0.10 in 0% 19 mhos 1968 None None - -
12/20/2014 11:41 Chemically Wet 31.3F 28F 30F 95 7% 0.00 in 0% 18 mhos 1958 None None - -
12/20/2014 11:39 Chemically Wet 30.9F 28F 30F 95 6% 0.00 in 0% 17 mhos 1867 None None - -
12/20/2014 11:29 Chemically Wet 30.0F 28F 30F 95 6% - 55% 17 mhos 1946 None None - -
12/20/2014 11:19 Chemically Wet 29.5F 28F 30F 95 7% - 61% 17 mhos 2008 None None - -
12/20/2014 11:10 Chemically Wet 28.8F 28F 30F 95 7% - 67% 17 mhos 2107 None None - -
Date/Time
(MST)
Sf
Temp Chem Water Layer Surface Precipitation
Sf Sub Frz Factor Pct Depth IcePct Cond Salin Type Intens Accum Rate
12/20/2014 11:09 Chemically Wet 28.6F 28F 30F 95 7% - 68% 17 mhos 2132 None None - -
12/20/2014 10:59 Chemically Wet 28.0F 28F 30F 95 8% - 69% 18 mhos 2302 None None - -
12/20/2014 10:49 Chemically Wet 27.9F 28F 30F 95 8% - 70% 18 mhos 2384 None None - -
12/20/2014 10:41 Chemically Wet 27.5F 28F 30F 95 8% - 71% 18 mhos 2421 None None - -
12/20/2014 10:39 Chemically Wet 27.1F 28F 30F 95 8% - 72% 18 mhos 2456 None None - -
12/20/2014 10:29 Chemically Wet 26.6F 28F 29F 95 9% - 72% 19 mhos 2721 None None - -
12/20/2014 10:19 Chemically Wet 26.1F 28F 29F 95 9% - 74% 18 mhos 2689 None None - -
12/20/2014 10:08 Chemically Wet 25.7F 28F 29F 95 9% - 75% 17 mhos 2722 None None - -
12/20/2014 10:02 Chemically Wet 25.3F 28F 29F 95 9% - 76% 17 mhos 2686 None None - -
12/20/2014 09:58 Chemically Wet 25.2F 28F 29F 95 9% - 77% 16 mhos 2624 None None - -
12/20/2014 09:48 Chemically Wet 24.3F 28F 29F 95 9% - 79% 15 mhos 2626 None None - -
12/20/2014 09:38 Chemically Wet 23.4F 28F 29F 95 9% - 81% 14 mhos 2622 None None - -
12/20/2014 09:32 Chemically Wet 23.0F 28F 29F 95 9% - 81% 14 mhos 2658 Yes - - -
12/20/2014 09:28 Chemically Wet 22.8F 28F 29F 95 9% - 81% 13 mhos 2648 None None - -
12/20/2014 09:18 Chemically Wet 22.5F 28F 30F 95 7% - 85% 11 mhos 2215 None None - -
Date/Time
(MST)
Sf
Temp Chem Water Layer Surface Precipitation
Sf Sub Frz Factor Pct Depth IcePct Cond Salin Type Intens Accum Rate
12/20/2014 09:08 Ice Warning 21.9F 28F 30F 95 6% - 87% 9 mhos 1921 None None - -
12/20/2014 09:01 Ice Warning 21.4F 28F 30F 95 6% - 89% 8 mhos 1772 None None - -
12/20/2014 08:58 Ice Warning 21.4F 28F 30F 95 6% - 89% 7 mhos 1709 None None - -
12/20/2014 08:51 Ice Warning 21.0F 28F 30F 95 6% - 89% 7 mhos 1751 None None - -
12/20/2014 08:48 Ice Warning 21.0F 28F 31F 95 6% - 89% 7 mhos 1684 None None - -
12/20/2014 08:38 Ice Warning 20.5F 28F 30F 95 6% - 89% 7 mhos 1735 None None - -
12/20/2014 08:31 Ice Warning 20.1F 28F 31F 95 5% - 91% 6 mhos 1549 None None - -
12/20/2014 08:28 Ice Warning 20.1F 28F 31F 95 5% - 91% 6 mhos 1550 None None - -
12/20/2014 08:20 Ice Warning 19.4F 28F 31F 95 5% - 91% 6 mhos 1587 None None - -
12/20/2014 08:18 Ice Warning 19.2F 28F 31F 95 5% - 91% 6 mhos 1606 None None - -
12/20/2014 08:08 Ice Warning 18.9F 28F 31F 95 5% - 91% 6 mhos 1586 None None - -
12/20/2014 08:01 Ice Warning 18.5F 28F 31F 95 5% - 91% 5 mhos 1588 None None - -
12/20/2014 07:58 Ice Warning 18.5F 28F 31F 95 5% - 92% 5 mhos 1552 None None - -
12/20/2014 07:48 Ice Warning 18.3F 28F 31F 95 5% - 92% 5 mhos 1521 None None - -
12/20/2014 07:39 Ice Warning 18.3F 28F 31F 95 5% - 92% 5 mhos 1504 None None - -
Date/Time
(MST)
Sf
Temp Chem Water Layer Surface Precipitation
Sf Sub Frz Factor Pct Depth IcePct Cond Salin Type Intens Accum Rate
12/20/2014 07:38 Ice Warning 18.3F 28F 31F 95 5% - 92% 5 mhos 1503 None None - -
12/20/2014 07:28 Ice Warning 18.1F 28F 31F 95 5% - 92% 5 mhos 1508 None None - -
12/20/2014 07:18 Ice Warning 18.3F 28F 31F 95 5% - 92% 5 mhos 1472 None None - -
12/20/2014 07:10 Ice Warning 18.5F 28F 31F 95 5% - 92% 5 mhos 1424 None None - -
12/20/2014 07:08 Ice Warning 18.5F 28F 31F 95 5% - 92% 5 mhos 1424 None None - -
12/20/2014 06:58 Ice Warning 18.3F 28F 31F 95 5% - 92% 5 mhos 1412 None None - -
12/20/2014 06:48 Ice Warning 18.3F 28F 31F 95 5% - 93% 5 mhos 1384 None None - -
12/20/2014 06:40 Ice Warning 18.3F 29F 31F 95 5% - 93% 5 mhos 1374 None None - -
12/20/2014 06:38 Ice Warning 18.1F 29F 31F 95 4% - 93% 4 mhos 1338 None None - -
12/20/2014 06:28 Ice Warning 18.3F 29F 31F 95 4% - 93% 4 mhos 1262 None None - -
12/20/2014 06:18 Ice Warning 18.0F 29F 31F 95 4% - 93% 4 mhos 1286 None None - -
12/20/2014 06:10 Ice Warning 17.8F 29F 31F 95 4% - 93% 4 mhos 1279 None None - -
12/20/2014 06:08 Ice Warning 17.6F 29F 31F 95 4% - 93% 4 mhos 1294 None None - -
12/20/2014 05:58 Ice Warning 17.4F 29F 31F 95 4% - 93% 4 mhos 1288 None None - -
12/20/2014 05:48 Ice Warning 17.2F 29F 31F 95 4% - 94% 4 mhos 1276 None None - -
Date/Time
(MST)
Sf
Temp Chem Water Layer Surface Precipitation
Sf Sub Frz Factor Pct Depth IcePct Cond Salin Type Intens Accum Rate
12/20/2014 05:39 Ice Warning 17.1F 29F 31F 95 4% - 94% 4 mhos 1270 None None - -
12/20/2014 05:38 Ice Warning 16.9F 29F 31F 95 4% - 94% 4 mhos 1265 None None - -
12/20/2014 05:27 Ice Warning 16.7F 29F 31F 95 4% - 94% 4 mhos 1260 None None - -
12/20/2014 05:17 Ice Warning 16.3F 29F 31F 95 4% - 94% 4 mhos 1252 None None - -
12/20/2014 05:09 Ice Warning 16.2F 29F 31F 95 4% - 94% 3 mhos 1248 None None - -
12/20/2014 05:07 Ice Warning 16.2F 29F 31F 95 4% - 94% 3 mhos 1230 None None - -
12/20/2014 04:57 Ice Warning 16.2F 29F 31F 95 4% - 94% 3 mhos 1209 None None - -
12/20/2014 04:47 Ice Warning 16.2F 29F 31F 95 4% - 94% 3 mhos 1209 None None - -
12/20/2014 04:40 Ice Warning 16.0F 29F 31F 95 4% - 94% 3 mhos 1207 None None - -
12/20/2014 04:37 Ice Warning 16.0F 29F 31F 95 4% - 94% 3 mhos 1207 None None - -
12/20/2014 04:27 Ice Warning 16.0F 29F 31F 95 4% - 94% 3 mhos 1190 None None - -
12/20/2014 04:17 Ice Warning 16.0F 29F 31F 95 4% - 94% 3 mhos 1190 None None - -
12/20/2014 04:09 Ice Warning 16.0F 29F 31F 95 4% - 94% 3 mhos 1158 None None - -
12/20/2014 04:07 Ice Warning 16.0F 29F 31F 95 4% - 94% 3 mhos 1158 None None - -
12/20/2014 03:57 Ice Warning 16.0F 29F 31F 95 4% - 94% 3 mhos 1142 None None - -
Date/Time
(MST)
Sf
Temp Chem Water Layer Surface Precipitation
Sf Sub Frz Factor Pct Depth IcePct Cond Salin Type Intens Accum Rate
12/20/2014 03:47 Ice Warning 16.2F 29F 31F 95 4% - 95% 3 mhos 1113 None None - -
12/20/2014 03:40 Ice Warning 16.2F 29F 31F 95 4% - 95% 3 mhos 1113 None None - -
12/20/2014 03:37 Ice Warning 16.2F 29F 31F 95 4% - 95% 3 mhos 1100 None None - -
12/20/2014 03:27 Ice Warning 16.5F 29F 31F 95 4% - 95% 3 mhos 1087 None None - -
12/20/2014 03:17 Ice Warning 16.9F 29F 31F 95 4% - 95% 3 mhos 1075 None None - -
12/20/2014 03:10 Ice Warning 17.2F 29F 31F 95 4% - 95% 3 mhos 1078 None None - -
12/20/2014 03:07 Ice Warning 17.2F 29F 31F 95 4% - 95% 3 mhos 1078 None None - -
12/20/2014 02:57 Ice Warning 17.2F 29F 31F 95 4% - 95% 3 mhos 1065 None None - -
12/20/2014 02:47 Ice Warning 17.4F 29F 31F 95 3% - 95% 3 mhos 1038 None None - -
12/20/2014 02:41 Ice Warning 17.6F 29F 31F 95 3% - 95% 3 mhos 1039 None None - -
12/20/2014 02:37 Ice Warning 17.6F 29F 31F 95 3% - 95% 3 mhos 1039 None None - -
12/20/2014 02:27 Ice Warning 17.8F 29F 31F 95 3% - 95% 3 mhos 1026 None None - -
12/20/2014 02:17 Ice Warning 18.3F 29F 31F 95 3% - 94% 3 mhos 1048 None None - -
Change End Date:
Copyright © 1998-2005 Surface Systems, Inc.
All Rights Reserved
Send comments about the data to:
SCAN Web ® is a registered trademark of Surface Systems, Inc.
SCAN Web Version 5.6